Davis, Illinois
Current Conditions -  °F | °C
As of 12:55 PM on Thursday 23 Oct 2014 (Local Time) from KFEP Reporting Station
Overcast Overcast  
Wind Chill: 56°   Ceiling: 10000
Heat Index: 56°   Visibility: 10mi
Dew Point: 43°   Wind: 12mph
Humidity: 60%   Direction: 180°S
Pressure: 30.11"   Gusts: 17mph
Location:  42.42°N, 89.41°W
Report Text: KFEP 231755Z AUTO 18010G15KT 10SM OVC100 14/06 A3011 RMK AO2 T01360060 10141 20005
Loading
Personal Weather Stations






























Interactive Weather Map
Tropical Storm Tracking
New forecast layout! Learn more

10-Day Weather Forecast

Advertisements
Track Severe Weather on mobile